Time;durP1;ratioP1;P1;durP2;ratioP2;P2;SDS_P1;SDS_P2;PMS_P1;PMS_P2;Temp;Humidity;BMP_temperature;BMP_pressure;BME280_temperature;BME280_humidity;BME280_pressure;Samples;Min_cycle;Max_cycle;Signal;HPM_P1;HPM_P2
2021/05/04 00:00:39;;;;;;;4.17;2.90;;;;;;;4.91;57.26;95249.03;4993591;28;20195;-77
2021/05/04 00:03:04;;;;;;;3.00;2.40;;;;;;;4.91;57.30;95255.94;5008545;28;20191;-77
2021/05/04 00:05:30;;;;;;;3.07;2.37;;;;;;;4.86;57.84;95240.00;4991001;28;20179;-77
2021/05/04 00:07:55;;;;;;;2.83;2.53;;;;;;;4.82;57.48;95239.44;4993183;28;20793;-77
2021/05/04 00:10:20;;;;;;;2.83;2.30;;;;;;;4.82;57.92;95236.88;4993280;28;20259;-77
2021/05/04 00:12:46;;;;;;;3.27;2.53;;;;;;;4.79;57.89;95234.56;4993223;28;20620;-76
2021/05/04 00:15:12;;;;;;;3.97;2.20;;;;;;;4.73;58.05;95232.44;4992273;28;20207;-77
2021/05/04 00:17:38;;;;;;;2.83;2.63;;;;;;;4.71;57.89;95229.19;4992916;28;20290;-77
2021/05/04 00:20:05;;;;;;;3.40;2.53;;;;;;;4.67;58.48;95227.78;4992933;28;20226;-77
2021/05/04 00:22:30;;;;;;;4.53;2.83;;;;;;;4.62;58.27;95220.44;4992945;28;20683;-77
2021/05/04 00:24:56;;;;;;;3.13;2.47;;;;;;;4.66;58.48;95219.25;5007580;28;20191;-77
2021/05/04 00:27:21;;;;;;;4.93;2.83;;;;;;;4.59;59.08;95220.66;4992879;28;20338;-77
2021/05/04 00:29:46;;;;;;;3.27;2.93;;;;;;;4.60;58.57;95214.59;4992818;28;20238;-77
2021/05/04 00:32:12;;;;;;;3.57;2.77;;;;;;;4.54;58.36;95215.06;4993217;28;20258;-77
2021/05/04 00:34:37;;;;;;;4.40;2.90;;;;;;;4.50;59.04;95205.94;4992144;28;20215;-77
2021/05/04 00:37:02;;;;;;;2.80;2.57;;;;;;;4.57;58.85;95201.16;4992794;28;20210;-77
2021/05/04 00:39:34;;;;;;;2.50;2.30;;;;;;;4.68;58.50;95204.53;4992701;28;20263;-77
2021/05/04 00:41:59;;;;;;;2.87;2.60;;;;;;;4.80;58.30;95198.41;4992915;28;20180;-77
2021/05/04 00:44:25;;;;;;;3.43;2.50;;;;;;;4.81;57.78;95194.09;4992056;28;20226;-76
2021/05/04 00:46:50;;;;;;;3.23;2.50;;;;;;;4.82;58.12;95183.66;4992536;28;20573;-77
2021/05/04 00:49:15;;;;;;;3.47;2.50;;;;;;;4.82;58.26;95183.66;4992676;28;20195;-77
2021/05/04 00:51:41;;;;;;;5.30;2.53;;;;;;;4.93;57.86;95174.28;5007545;28;20183;-77
2021/05/04 00:54:06;;;;;;;2.63;2.30;;;;;;;4.94;58.00;95173.34;4992505;28;20231;-77
2021/05/04 00:56:32;;;;;;;3.37;2.37;;;;;;;4.90;58.04;95166.81;4990554;28;20215;-76
2021/05/04 00:58:57;;;;;;;3.10;2.80;;;;;;;5.02;57.70;95163.25;4991042;28;20198;-76
2021/05/04 01:01:23;;;;;;;4.30;2.47;;;;;;;4.91;57.77;95155.56;4992174;28;20176;-77
2021/05/04 01:03:49;;;;;;;5.20;2.50;;;;;;;4.88;58.15;95160.97;4992258;28;20552;-76
2021/05/04 01:06:14;;;;;;;3.07;2.17;;;;;;;4.88;57.88;95153.25;4991002;28;20192;-76
2021/05/04 01:08:39;;;;;;;3.00;2.60;;;;;;;4.98;57.42;95149.81;4992437;28;20614;-77
2021/05/04 01:11:05;;;;;;;2.43;2.23;;;;;;;5.03;57.36;95136.56;4992469;28;20618;-75
2021/05/04 01:13:30;;;;;;;2.93;2.40;;;;;;;5.02;57.09;95130.59;4974504;28;20194;-76
2021/05/04 01:15:55;;;;;;;2.77;2.30;;;;;;;5.08;57.19;95135.28;4991416;28;20246;-75
2021/05/04 01:18:21;;;;;;;2.63;2.43;;;;;;;5.15;57.17;95120.16;4992123;28;20230;-76
2021/05/04 01:20:49;;;;;;;2.40;2.20;;;;;;;5.24;56.45;95116.81;4992016;28;20608;-76
2021/05/04 01:23:14;;;;;;;3.97;2.37;;;;;;;5.29;56.28;95119.00;4992087;28;20226;-75
2021/05/04 01:25:39;;;;;;;2.80;2.33;;;;;;;5.48;55.15;95110.56;4991243;28;20180;-76
2021/05/04 01:28:05;;;;;;;2.57;2.37;;;;;;;5.47;55.51;95117.50;4992439;28;20253;-77
2021/05/04 01:30:30;;;;;;;2.50;2.30;;;;;;;5.39;55.55;95104.47;4992049;28;20658;-75
2021/05/04 01:32:55;;;;;;;2.97;2.27;;;;;;;5.39;55.63;95101.88;4975796;28;20191;-75
2021/05/04 01:35:21;;;;;;;2.83;2.43;;;;;;;5.27;56.24;95095.97;4991868;28;20204;-75
2021/05/04 01:37:46;;;;;;;2.63;2.33;;;;;;;5.22;56.95;95087.81;4992003;28;20203;-75
2021/05/04 01:40:14;;;;;;;2.80;2.20;;;;;;;5.25;56.70;95086.75;4974602;28;20176;-76
2021/05/04 01:42:42;;;;;;;3.13;2.83;;;;;;;5.14;56.89;95079.91;4992069;28;20176;-76
2021/05/04 01:45:09;;;;;;;3.20;2.67;;;;;;;5.19;56.66;95082.91;4989970;28;20172;-76
2021/05/04 01:47:34;;;;;;;3.70;2.40;;;;;;;5.21;56.76;95072.47;4990640;28;20239;-76
2021/05/04 01:49:59;;;;;;;6.73;2.67;;;;;;;5.15;56.55;95073.00;4991802;28;20230;-76
2021/05/04 01:52:25;;;;;;;3.83;2.70;;;;;;;5.13;57.39;95075.72;4991753;28;20204;-76
2021/05/04 01:54:50;;;;;;;3.50;2.47;;;;;;;5.02;57.02;95065.47;4990998;28;20542;-76
2021/05/04 01:57:16;;;;;;;4.20;2.30;;;;;;;5.00;57.77;95059.63;4991573;28;20741;-76
2021/05/04 01:59:41;;;;;;;3.37;2.80;;;;;;;5.00;57.72;95057.88;4991633;28;20179;-77
2021/05/04 02:02:06;;;;;;;4.50;2.40;;;;;;;4.93;57.91;95051.59;4991493;28;20172;-76
2021/05/04 02:04:32;;;;;;;2.77;2.30;;;;;;;4.89;57.71;95051.97;4991160;28;20581;-76
2021/05/04 02:07:04;;;;;;;3.53;2.40;;;;;;;4.90;57.73;95051.84;4991489;28;20243;-77
2021/05/04 02:09:30;;;;;;;2.83;2.37;;;;;;;4.86;57.96;95042.75;4991515;28;20175;-76
2021/05/04 02:11:56;;;;;;;4.63;3.07;;;;;;;4.87;58.28;95038.44;4991504;28;20176;-76
2021/05/04 02:14:21;;;;;;;5.35;3.05;;;;;;;4.86;57.83;95050.47;4990644;28;20651;-76
2021/05/04 02:16:47;;;;;;;3.13;2.50;;;;;;;4.86;57.87;95036.75;4991334;28;20255;-76
2021/05/04 02:19:12;;;;;;;2.43;2.07;;;;;;;4.90;57.53;95030.44;4991537;28;20184;-76
2021/05/04 02:21:37;;;;;;;3.33;2.70;;;;;;;4.89;57.86;95028.81;4993160;28;20317;-76
2021/05/04 02:24:03;;;;;;;2.40;2.20;;;;;;;4.81;58.23;95025.09;4977610;28;20602;-76
2021/05/04 02:26:28;;;;;;;2.80;2.30;;;;;;;4.86;57.87;95011.88;4994058;28;20200;-77
2021/05/04 02:28:54;;;;;;;3.33;2.30;;;;;;;4.83;57.62;95009.53;4994774;28;20570;-76
2021/05/04 02:31:19;;;;;;;2.43;2.23;;;;;;;4.81;57.65;95007.09;4994754;28;20670;-77
2021/05/04 02:33:45;;;;;;;2.33;2.10;;;;;;;4.82;58.31;95005.34;4994819;28;20190;-77
2021/05/04 02:36:10;;;;;;;2.60;2.40;;;;;;;4.80;58.09;95000.31;4993968;28;20242;-76
2021/05/04 02:38:36;;;;;;;2.93;2.30;;;;;;;4.74;58.36;94987.16;4994639;28;20183;-76
2021/05/04 02:41:03;;;;;;;2.83;2.63;;;;;;;4.81;58.18;94981.38;4994632;28;20183;-76
2021/05/04 02:43:29;;;;;;;2.30;2.10;;;;;;;4.70;58.25;94991.75;4994605;28;20207;-76
2021/05/04 02:45:55;;;;;;;2.87;2.40;;;;;;;4.77;58.88;94974.88;4992614;28;20679;-76
2021/05/04 02:48:20;;;;;;;2.63;2.40;;;;;;;4.76;58.69;94969.81;4994410;28;20180;-76
2021/05/04 02:50:46;;;;;;;3.50;2.57;;;;;;;4.71;58.82;94969.41;4977043;28;20643;-76
2021/05/04 02:53:12;;;;;;;2.60;2.40;;;;;;;4.64;59.09;94976.78;4994528;28;20176;-76
2021/05/04 02:55:37;;;;;;;6.17;2.63;;;;;;;4.60;59.71;94960.00;4993671;28;20204;-75
2021/05/04 02:58:02;;;;;;;3.30;2.70;;;;;;;4.52;59.50;94965.75;4994351;28;20203;-75
2021/05/04 03:00:28;;;;;;;3.00;2.70;;;;;;;4.52;59.74;94952.91;4992995;28;20184;-76
2021/05/04 03:02:53;;;;;;;4.07;2.43;;;;;;;4.58;59.04;94949.00;4994334;28;20180;-76
2021/05/04 03:05:18;;;;;;;3.67;2.73;;;;;;;4.55;59.63;94944.13;4993784;28;20238;-76
2021/05/04 03:07:45;;;;;;;3.17;2.60;;;;;;;4.49;60.09;94942.03;4994299;28;20203;-77
2021/05/04 03:10:10;;;;;;;3.47;2.30;;;;;;;4.42;60.23;94940.94;4994423;28;20679;-77
2021/05/04 03:12:36;;;;;;;2.70;2.50;;;;;;;4.49;59.96;94945.44;4994294;28;20216;-77
2021/05/04 03:15:01;;;;;;;2.90;2.60;;;;;;;4.49;60.30;94936.91;4993424;28;20203;-77
2021/05/04 03:17:26;;;;;;;2.70;2.33;;;;;;;4.46;60.30;94929.44;4994161;28;20203;-76
2021/05/04 03:19:51;;;;;;;4.73;2.57;;;;;;;4.47;60.28;94936.22;4976734;28;20184;-76
2021/05/04 03:22:17;;;;;;;3.60;2.50;;;;;;;4.58;59.71;94943.03;4994213;28;20183;-77
2021/05/04 03:24:43;;;;;;;6.23;2.33;;;;;;;5.21;56.93;94934.31;4993673;28;20207;-77
2021/05/04 03:27:08;;;;;;;2.23;2.03;;;;;;;5.76;54.98;94929.59;4993887;28;20206;-77
2021/05/04 03:29:34;;;;;;;2.57;2.27;;;;;;;5.67;55.13;94927.81;4976447;28;20237;-76
2021/05/04 03:32:00;;;;;;;3.23;2.30;;;;;;;5.85;54.50;94920.25;5008449;28;20176;-76
2021/05/04 03:34:25;;;;;;;2.47;2.27;;;;;;;6.23;53.02;94912.53;4992645;28;20297;-76
2021/05/04 03:36:51;;;;;;;2.77;2.07;;;;;;;6.39;52.95;94903.44;4993591;28;20212;-76
2021/05/04 03:39:16;;;;;;;2.40;2.20;;;;;;;6.43;52.96;94910.75;4993735;28;20183;-76
2021/05/04 03:41:41;;;;;;;3.27;2.03;;;;;;;6.72;51.62;94894.44;4976266;28;20176;-76
2021/05/04 03:44:06;;;;;;;4.33;2.17;;;;;;;6.85;51.42;94902.66;4993466;28;20648;-77
2021/05/04 03:46:32;;;;;;;3.50;2.57;;;;;;;7.00;50.48;94892.69;4992979;28;20200;-77
2021/05/04 03:48:57;;;;;;;2.90;2.33;;;;;;;7.21;49.49;94882.13;4993563;28;20176;-77
2021/05/04 03:51:23;;;;;;;4.40;2.20;;;;;;;7.33;49.26;94873.22;4993548;28;20275;-77
2021/05/04 03:53:48;;;;;;;3.33;2.37;;;;;;;7.23;50.24;94886.19;4976092;28;20215;-77
2021/05/04 03:56:13;;;;;;;3.63;2.20;;;;;;;7.28;49.80;94875.44;4992793;28;20216;-77
2021/05/04 03:58:39;;;;;;;1.80;1.70;;;;;;;7.25;50.27;94879.13;4975792;28;20230;-77
2021/05/04 04:01:04;;;;;;;3.33;2.00;;;;;;;7.28;49.76;94873.69;4993216;28;20211;-77
2021/05/04 04:03:29;;;;;;;4.47;2.13;;;;;;;7.28;50.30;94871.09;4993341;28;20270;-77
2021/05/04 04:05:56;;;;;;;2.97;2.30;;;;;;;7.40;49.33;94866.53;4992575;28;20195;-77
2021/05/04 04:08:21;;;;;;;2.93;2.47;;;;;;;7.29;50.12;94871.91;4993133;28;20644;-77
2021/05/04 04:10:46;;;;;;;4.47;2.53;;;;;;;7.40;49.75;94863.94;4975835;28;20234;-77
2021/05/04 04:13:12;;;;;;;4.63;2.23;;;;;;;7.31;50.15;94852.72;4975486;28;20671;-77
2021/05/04 04:15:37;;;;;;;2.40;2.20;;;;;;;7.31;50.14;94851.91;4992618;28;20211;-77
2021/05/04 04:18:03;;;;;;;2.93;2.30;;;;;;;7.44;49.55;94842.06;4993246;28;20180;-77
2021/05/04 04:20:28;;;;;;;4.43;2.73;;;;;;;7.59;49.02;94848.31;4992965;28;20667;-77
2021/05/04 04:22:54;;;;;;;3.57;2.33;;;;;;;7.66;48.71;94844.22;4975328;28;20363;-76
2021/05/04 04:25:19;;;;;;;3.10;2.37;;;;;;;7.61;48.75;94838.69;4992294;28;20176;-77
2021/05/04 04:27:44;;;;;;;2.53;2.27;;;;;;;7.54;48.99;94839.41;4992522;28;20214;-77
2021/05/04 04:30:10;;;;;;;2.70;2.50;;;;;;;7.61;49.03;94825.75;4975670;28;20440;-77
2021/05/04 04:32:35;;;;;;;3.90;2.40;;;;;;;7.65;48.63;94828.84;4992922;28;20188;-77
2021/05/04 04:35:01;;;;;;;2.27;2.07;;;;;;;7.73;48.52;94825.53;4992259;28;20210;-76
2021/05/04 04:37:26;;;;;;;3.47;2.47;;;;;;;7.65;48.27;94821.91;4992572;28;20230;-77
2021/05/04 04:39:51;;;;;;;2.97;2.43;;;;;;;7.94;47.06;94826.03;4992799;28;20663;-77
2021/05/04 04:42:17;;;;;;;3.10;2.27;;;;;;;7.93;47.37;94834.75;4992546;28;20191;-76
2021/05/04 04:44:42;;;;;;;3.00;2.40;;;;;;;8.01;46.94;94829.66;4974466;28;20262;-77
2021/05/04 04:47:08;;;;;;;2.60;2.40;;;;;;;7.97;47.29;94828.34;4992509;28;20204;-77
2021/05/04 04:49:33;;;;;;;3.60;2.40;;;;;;;7.95;47.70;94831.09;4992433;28;20627;-77
2021/05/04 04:51:59;;;;;;;3.67;2.30;;;;;;;8.05;46.76;94831.00;4992489;28;20184;-77
2021/05/04 04:54:24;;;;;;;2.50;1.90;;;;;;;8.04;47.15;94828.53;4991895;28;20183;-77
2021/05/04 04:56:50;;;;;;;2.10;1.90;;;;;;;8.06;47.16;94822.28;4992218;28;20222;-77
2021/05/04 04:59:15;;;;;;;2.90;2.60;;;;;;;8.11;46.97;94827.78;4992220;28;20186;-75
2021/05/04 05:01:41;;;;;;;3.27;2.13;;;;;;;8.14;46.71;94824.94;4975081;28;20439;-76
2021/05/04 05:04:06;;;;;;;3.73;2.07;;;;;;;8.15;46.65;94823.97;4992235;28;20639;-76
2021/05/04 05:06:32;;;;;;;2.30;2.10;;;;;;;8.24;46.29;94827.41;4974203;28;20195;-76
2021/05/04 05:08:58;;;;;;;2.37;2.00;;;;;;;8.39;45.37;94819.94;4990958;28;20171;-75
2021/05/04 05:11:23;;;;;;;2.53;2.13;;;;;;;8.35;45.29;94826.38;4992079;28;20182;-76
2021/05/04 05:13:49;;;;;;;2.90;2.17;;;;;;;8.33;45.81;94818.75;4992035;28;20188;-78
2021/05/04 05:16:17;;;;;;;2.27;2.00;;;;;;;8.45;45.45;94824.50;4991840;28;20212;-77
2021/05/04 05:18:42;;;;;;;3.47;2.00;;;;;;;8.44;45.58;94822.88;4978272;28;20243;-76
2021/05/04 05:21:08;;;;;;;6.67;2.00;;;;;;;8.43;45.89;94823.84;4981908;28;20564;-75
2021/05/04 05:23:33;;;;;;;3.00;1.77;;;;;;;8.37;46.25;94821.88;4972170;28;20184;-75
2021/05/04 05:26:00;;;;;;;2.57;2.10;;;;;;;8.41;45.46;94825.78;4970196;28;20231;-77
2021/05/04 05:28:25;;;;;;;2.80;2.03;;;;;;;8.49;45.30;94821.47;4967908;28;20196;-77
2021/05/04 05:30:52;;;;;;;2.03;1.77;;;;;;;8.49;45.66;94815.50;4968398;28;20197;-76
2021/05/04 05:33:17;;;;;;;2.73;2.00;;;;;;;8.42;45.97;94815.28;4970849;28;20208;-76
2021/05/04 05:35:43;;;;;;;1.60;1.50;;;;;;;8.57;45.35;94812.13;4970206;28;20220;-77
2021/05/04 05:38:08;;;;;;;2.53;1.73;;;;;;;8.62;44.73;94800.34;4971584;28;20276;-77
2021/05/04 05:40:33;;;;;;;2.17;1.80;;;;;;;8.59;45.02;94802.44;4971661;28;20203;-77
2021/05/04 05:42:59;;;;;;;2.03;1.83;;;;;;;8.61;45.20;94803.91;4971970;28;20302;-77
2021/05/04 05:45:24;;;;;;;3.40;1.93;;;;;;;8.59;45.03;94805.03;4971331;28;20659;-77
2021/05/04 05:47:49;;;;;;;3.90;1.80;;;;;;;8.75;44.48;94803.34;4972190;28;20719;-77
2021/05/04 05:50:15;;;;;;;2.40;1.73;;;;;;;8.75;44.69;94799.94;4954344;28;20208;-76
2021/05/04 05:52:40;;;;;;;2.30;1.90;;;;;;;8.79;43.94;94796.88;4972574;28;20226;-77
2021/05/04 05:55:06;;;;;;;3.87;2.13;;;;;;;8.83;44.87;94793.97;4953758;28;20204;-76
2021/05/04 05:57:31;;;;;;;2.47;1.70;;;;;;;8.84;44.19;94796.44;4955589;28;20216;-75
2021/05/04 05:59:56;;;;;;;1.67;1.57;;;;;;;8.82;44.15;94800.94;4975100;28;20263;-75
2021/05/04 06:02:22;;;;;;;3.83;1.90;;;;;;;8.99;43.52;94797.44;4971873;28;20196;-76
2021/05/04 06:04:48;;;;;;;3.57;2.70;;;;;;;9.15;43.44;94816.63;4972091;28;20649;-76
2021/05/04 06:07:13;;;;;;;2.70;1.80;;;;;;;9.41;42.92;94801.78;4974739;28;20216;-76
2021/05/04 06:09:40;;;;;;;1.50;1.40;;;;;;;9.67;41.62;94799.09;4974133;28;20196;-76
2021/05/04 06:12:06;;;;;;;3.10;1.57;;;;;;;10.22;40.40;94795.88;4973533;28;20188;-76
2021/05/04 06:14:31;;;;;;;2.53;1.30;;;;;;;10.52;40.57;94801.38;4973303;28;20542;-76
2021/05/04 06:16:57;;;;;;;3.13;1.63;;;;;;;10.65;39.60;94806.84;4975113;28;20208;-76
2021/05/04 06:19:22;;;;;;;2.17;1.60;;;;;;;10.68;39.60;94801.31;4975180;28;20185;-77
2021/05/04 06:21:47;;;;;;;2.13;1.53;;;;;;;10.54;39.83;94794.25;4958583;28;20203;-76
2021/05/04 06:24:13;;;;;;;3.30;1.60;;;;;;;10.33;40.19;94785.16;4975473;28;20192;-75
2021/05/04 06:26:38;;;;;;;2.97;1.60;;;;;;;10.23;39.88;94784.53;4969470;28;20215;-77
2021/05/04 06:29:05;;;;;;;2.70;1.40;;;;;;;10.12;40.33;94779.66;4974823;28;20197;-76
2021/05/04 06:31:31;;;;;;;1.80;1.70;;;;;;;10.11;40.10;94783.22;4974850;28;20227;-77
2021/05/04 06:33:56;;;;;;;1.53;1.43;;;;;;;10.10;40.69;94784.19;4957586;28;20204;-77
2021/05/04 06:36:21;;;;;;;1.90;1.50;;;;;;;10.15;40.42;94774.94;4974441;28;20638;-76
2021/05/04 06:38:47;;;;;;;3.13;1.67;;;;;;;10.17;41.22;94778.19;4974691;28;20181;-76
2021/05/04 06:41:12;;;;;;;2.50;1.40;;;;;;;10.06;40.67;94785.47;4974257;28;20244;-76
2021/05/04 06:43:38;;;;;;;1.87;1.37;;;;;;;10.01;40.52;94791.19;4975665;28;20193;-77
2021/05/04 06:46:04;;;;;;;2.97;2.50;;;;;;;10.02;40.79;94773.81;4973735;28;20742;-77
2021/05/04 06:48:29;;;;;;;1.40;1.30;;;;;;;10.05;40.73;94776.09;4974878;28;20205;-76
2021/05/04 06:50:57;;;;;;;1.57;1.43;;;;;;;10.09;40.35;94773.03;4956019;28;20185;-75
2021/05/04 06:53:22;;;;;;;3.80;1.70;;;;;;;10.17;39.55;94773.00;4969550;28;20211;-76
2021/05/04 06:55:48;;;;;;;4.77;1.77;;;;;;;10.12;40.45;94764.91;4968825;28;20259;-76
2021/05/04 06:58:13;;;;;;;2.37;1.57;;;;;;;10.18;40.50;94777.22;4975238;28;20235;-77
2021/05/04 07:00:39;;;;;;;4.20;1.60;;;;;;;10.26;40.38;94775.63;4974220;28;20280;-77
2021/05/04 07:03:04;;;;;;;3.50;1.80;;;;;;;10.33;40.25;94772.19;4974568;28;20534;-76
2021/05/04 07:05:30;;;;;;;2.40;1.77;;;;;;;10.32;40.64;94761.97;4957063;28;20263;-77
2021/05/04 07:07:56;;;;;;;3.87;2.63;;;;;;;10.44;40.31;94753.69;4949141;28;20208;-77
2021/05/04 07:10:21;;;;;;;2.00;1.70;;;;;;;10.57;39.81;94758.34;4974691;28;20699;-77
2021/05/04 07:12:46;;;;;;;4.50;1.90;;;;;;;10.65;40.96;94757.53;4974727;28;20196;-77
2021/05/04 07:15:12;;;;;;;2.73;1.73;;;;;;;10.72;40.58;94755.88;4956937;28;20212;-77
2021/05/04 07:17:37;;;;;;;2.53;1.70;;;;;;;10.85;40.43;94761.34;4975084;28;20239;-76
2021/05/04 07:20:04;;;;;;;2.20;1.70;;;;;;;10.90;41.35;94760.84;4974172;28;20196;-75
2021/05/04 07:22:30;;;;;;;2.47;1.73;;;;;;;11.00;40.59;94770.06;4956623;28;20196;-77
2021/05/04 07:24:55;;;;;;;5.47;1.97;;;;;;;11.04;40.34;94753.16;4948535;28;20187;-77
2021/05/04 07:27:21;;;;;;;2.97;1.80;;;;;;;11.28;40.54;94734.03;4974631;28;20209;-77
2021/05/04 07:29:47;;;;;;;3.63;2.00;;;;;;;11.17;40.56;94718.03;4957164;28;20200;-77
2021/05/04 07:32:16;;;;;;;3.23;1.73;;;;;;;11.25;40.51;94736.16;4976009;28;20247;-76
2021/05/04 07:34:41;;;;;;;2.20;2.00;;;;;;;11.38;40.36;94718.19;4973093;28;20184;-76
2021/05/04 07:37:06;;;;;;;2.93;1.60;;;;;;;11.41;40.45;94730.88;4974007;28;20209;-77
2021/05/04 07:39:32;;;;;;;1.80;1.67;;;;;;;11.53;40.16;94726.88;4973850;28;20189;-77
2021/05/04 07:41:57;;;;;;;3.10;1.83;;;;;;;11.55;40.43;94753.50;4973941;28;20255;-75
2021/05/04 07:44:22;;;;;;;4.47;1.93;;;;;;;11.49;40.52;94733.41;4973397;28;20212;-77
2021/05/04 07:46:48;;;;;;;2.77;1.67;;;;;;;11.49;39.77;94725.63;4973827;28;20204;-77
2021/05/04 07:49:21;;;;;;;2.13;1.93;;;;;;;11.48;39.78;94730.97;4973732;28;20184;-76
2021/05/04 07:51:46;;;;;;;3.43;2.30;;;;;;;11.55;39.93;94722.31;4973633;28;20202;-77
2021/05/04 07:54:12;;;;;;;2.40;1.80;;;;;;;11.49;40.36;94730.81;4973437;28;20929;-75
2021/05/04 07:56:38;;;;;;;2.87;2.50;;;;;;;11.63;40.30;94732.66;4973583;28;20212;-76
2021/05/04 07:59:03;;;;;;;3.17;2.00;;;;;;;11.46;40.75;94735.53;4973700;28;20300;-76
2021/05/04 08:01:28;;;;;;;3.80;2.10;;;;;;;11.44;40.23;94734.91;4973846;28;20562;-77
2021/05/04 08:03:54;;;;;;;2.30;1.70;;;;;;;11.51;40.10;94735.84;4955432;28;20547;-75
2021/05/04 08:06:19;;;;;;;1.77;1.37;;;;;;;11.45;40.18;94739.13;4970853;28;20383;-77
2021/05/04 08:08:44;;;;;;;2.87;1.77;;;;;;;11.56;39.89;94730.91;4965210;28;20211;-76
2021/05/04 08:11:10;;;;;;;2.67;1.73;;;;;;;11.56;39.88;94713.53;4967486;28;20208;-76
2021/05/04 08:13:36;;;;;;;3.13;1.70;;;;;;;11.70;39.95;94726.78;4956996;28;20308;-76
2021/05/04 08:16:05;;;;;;;1.90;1.80;;;;;;;12.04;39.63;94736.78;4971860;28;20215;-77
2021/05/04 08:18:32;;;;;;;2.30;1.50;;;;;;;12.34;38.85;94728.00;4956627;28;20624;-77
2021/05/04 08:20:57;;;;;;;2.57;1.90;;;;;;;12.48;38.16;94736.84;4973627;28;20674;-77
2021/05/04 08:23:24;;;;;;;3.33;1.60;;;;;;;12.39;38.02;94733.50;4973898;28;20289;-77
2021/05/04 08:25:51;;;;;;;2.37;1.60;;;;;;;12.55;37.78;94739.53;4973201;28;20208;-77
2021/05/04 08:28:16;;;;;;;3.27;1.80;;;;;;;12.78;37.63;94740.25;4988659;28;20669;-77
2021/05/04 08:30:41;;;;;;;1.97;1.80;;;;;;;12.58;38.04;94716.53;4974829;28;20192;-77
2021/05/04 08:33:07;;;;;;;2.00;1.60;;;;;;;12.58;38.28;94729.56;4974129;28;20275;-77
2021/05/04 08:35:32;;;;;;;2.53;1.50;;;;;;;12.48;37.78;94757.66;4973635;28;20553;-76
2021/05/04 08:37:58;;;;;;;1.90;1.40;;;;;;;12.28;37.58;94739.16;4974167;28;20188;-77
2021/05/04 08:40:24;;;;;;;1.60;1.50;;;;;;;12.29;37.87;94742.56;4974347;28;20648;-77
2021/05/04 08:42:50;;;;;;;1.57;1.47;;;;;;;12.09;37.71;94745.66;4989344;28;20188;-77
2021/05/04 08:45:16;;;;;;;2.60;1.73;;;;;;;12.06;38.43;94727.78;4974029;28;20177;-78
2021/05/04 08:47:43;;;;;;;2.60;1.70;;;;;;;12.26;39.14;94746.31;4974072;28;20196;-77
2021/05/04 08:50:10;;;;;;;3.67;1.60;;;;;;;12.22;39.24;94739.84;4987956;28;20207;-77
2021/05/04 08:52:35;;;;;;;2.17;1.83;;;;;;;12.30;38.58;94736.38;4973744;28;20189;-77
2021/05/04 08:55:01;;;;;;;3.63;1.97;;;;;;;12.36;38.07;94740.84;4973780;28;20209;-78
2021/05/04 08:57:26;;;;;;;2.97;1.90;;;;;;;12.38;38.81;94746.72;4974717;28;20228;-78
2021/05/04 08:59:51;;;;;;;2.23;1.63;;;;;;;12.32;38.49;94756.03;4975474;28;20238;-78
2021/05/04 09:02:21;;;;;;;3.50;1.67;;;;;;;12.52;39.06;94755.50;4974495;28;20192;-75
2021/05/04 09:04:51;;;;;;;1.87;1.73;;;;;;;12.43;37.40;94744.38;4973208;28;20243;-77
2021/05/04 09:07:25;;;;;;;1.97;1.37;;;;;;;12.74;38.64;94737.19;4973134;28;20274;-75
2021/05/04 09:10:16;;;;;;;2.80;1.70;;;;;;;12.87;38.01;94740.94;4955640;28;20192;-77
2021/05/04 09:16:22;;;;;;;4.90;1.70;;;;;;;13.50;37.51;94736.91;4971747;28;20920;-78
2021/05/04 09:21:10;;;;;;;2.43;1.43;;;;;;;13.94;36.00;94736.72;4952125;28;20195;-77
2021/05/04 09:23:41;;;;;;;1.40;1.30;;;;;;;14.30;35.21;94736.59;4956059;28;20313;-78
2021/05/04 09:26:37;;;;;;;1.80;1.40;;;;;;;14.41;34.74;94736.09;4971342;28;20201;-77
2021/05/04 09:29:08;;;;;;;2.40;1.67;;;;;;;14.17;34.46;94721.66;4951846;28;20220;-75
2021/05/04 09:31:35;;;;;;;2.57;1.60;;;;;;;14.55;34.88;94739.63;4968885;28;20272;-76
2021/05/04 09:34:29;;;;;;;2.47;1.57;;;;;;;14.73;33.98;94736.50;4971040;28;20668;-75
2021/05/04 09:36:55;;;;;;;3.33;1.60;;;;;;;15.13;33.97;94736.72;4862335;29;20646;-75
2021/05/04 09:39:28;;;;;;;3.17;1.50;;;;;;;14.66;33.74;94730.44;4878474;29;20274;-75
2021/05/04 09:41:55;;;;;;;2.87;1.83;;;;;;;14.72;34.62;94727.06;4878279;29;20283;-73
2021/05/04 09:44:39;;;;;;;6.47;1.50;;;;;;;14.57;33.03;94737.59;4870091;29;20184;-74
2021/05/04 09:47:06;;;;;;;5.17;1.60;;;;;;;13.80;33.19;94709.72;4878386;29;20743;-74
2021/05/04 09:49:36;;;;;;;2.33;1.80;;;;;;;13.83;33.34;94735.41;4893645;29;20192;-75
2021/05/04 09:52:30;;;;;;;2.53;1.53;;;;;;;13.86;34.02;94726.41;4862689;29;20931;-75
2021/05/04 09:55:08;;;;;;;2.43;1.40;;;;;;;13.71;32.83;94721.28;4870524;29;20203;-75
2021/05/04 09:57:41;;;;;;;2.00;1.37;;;;;;;13.67;33.00;94716.59;4878119;29;20294;-75
2021/05/04 10:00:24;;;;;;;2.13;1.50;;;;;;;13.86;33.49;94719.38;4877673;29;20255;-75
2021/05/04 10:02:49;;;;;;;1.70;1.60;;;;;;;13.82;32.20;94718.16;4877883;29;20196;-77
2021/05/04 10:05:18;;;;;;;4.40;1.60;;;;;;;13.87;32.77;94722.81;4877441;29;20247;-76
2021/05/04 10:07:45;;;;;;;2.50;1.67;;;;;;;13.79;33.33;94721.16;4878138;29;20287;-76
2021/05/04 10:10:13;;;;;;;2.53;1.53;;;;;;;14.00;34.23;94712.47;4877803;29;20192;-75
2021/05/04 10:12:40;;;;;;;2.60;1.60;;;;;;;14.14;34.47;94726.47;4898112;28;20204;-76
2021/05/04 10:15:07;;;;;;;2.50;1.33;;;;;;;14.06;33.66;94708.31;4957234;28;20204;-76
2021/05/04 10:17:34;;;;;;;1.33;1.23;;;;;;;14.00;33.82;94719.50;4975276;28;20216;-76
2021/05/04 10:20:02;;;;;;;2.63;1.60;;;;;;;14.15;33.12;94715.00;4975095;28;20584;-76
2021/05/04 10:22:28;;;;;;;4.03;1.20;;;;;;;13.99;33.93;94707.44;4975737;28;20544;-76
2021/05/04 10:24:53;;;;;;;2.70;1.50;;;;;;;13.82;33.55;94712.13;4974915;28;20184;-77
2021/05/04 10:27:19;;;;;;;5.67;1.77;;;;;;;13.66;34.13;94707.97;4958010;28;20200;-76
2021/05/04 10:29:49;;;;;;;1.63;1.40;;;;;;;13.81;34.59;94713.94;4957932;28;20184;-75
2021/05/04 10:32:14;;;;;;;4.47;1.50;;;;;;;13.88;34.54;94703.56;4959943;28;20185;-76
2021/05/04 10:34:41;;;;;;;2.63;1.67;;;;;;;13.80;34.43;94725.38;4967922;28;20193;-76
2021/05/04 10:37:12;;;;;;;3.93;1.83;;;;;;;13.58;34.00;94715.91;4958675;28;20205;-77
2021/05/04 10:39:46;;;;;;;2.43;1.57;;;;;;;13.52;35.52;94720.09;4972882;28;20890;-76
2021/05/04 10:42:19;;;;;;;6.43;1.47;;;;;;;13.78;34.88;94722.16;4960179;28;20197;-76
2021/05/04 10:44:54;;;;;;;3.17;1.40;;;;;;;13.77;33.92;94712.69;4976635;28;20560;-76
2021/05/04 10:47:46;;;;;;;4.90;1.37;;;;;;;13.59;34.62;94701.88;4965120;28;20200;-75
2021/05/04 10:50:12;;;;;;;3.77;1.60;;;;;;;13.88;34.48;94706.97;4963939;28;20320;-76
2021/05/04 10:52:51;;;;;;;1.57;1.40;;;;;;;14.11;33.76;94727.63;4961396;28;20231;-76
2021/05/04 10:55:17;;;;;;;1.83;1.27;;;;;;;14.39;33.20;94742.47;4974215;28;20211;-76
2021/05/04 10:58:13;;;;;;;2.60;1.57;;;;;;;14.17;33.25;94720.84;4974868;28;20208;-76
2021/05/04 11:01:02;;;;;;;2.70;1.60;;;;;;;14.10;32.69;94727.81;4952976;28;20197;-76
2021/05/04 11:03:33;;;;;;;4.33;1.70;;;;;;;14.04;33.70;94728.56;4958597;28;20663;-76
2021/05/04 11:06:10;;;;;;;3.83;1.53;;;;;;;14.07;32.70;94730.81;4974477;28;20204;-76
2021/05/04 11:08:44;;;;;;;2.70;1.60;;;;;;;13.72;34.34;94703.81;4975222;28;20191;-76
2021/05/04 11:11:29;;;;;;;2.30;1.40;;;;;;;14.32;33.96;94708.50;4975315;28;20286;-75
2021/05/04 11:14:00;;;;;;;2.37;1.20;;;;;;;14.36;33.12;94709.72;4970637;28;20180;-75
2021/05/04 11:16:35;;;;;;;3.53;1.70;;;;;;;14.62;32.99;94724.78;4957395;28;20209;-75
2021/05/04 11:19:09;;;;;;;2.53;1.40;;;;;;;14.00;33.96;94709.06;4957309;28;20243;-76
2021/05/04 11:21:44;;;;;;;3.10;1.17;;;;;;;14.27;33.64;94705.66;4973711;28;20191;-74
2021/05/04 11:24:14;;;;;;;2.83;1.43;;;;;;;14.19;33.86;94708.41;4974488;28;20184;-76
2021/05/04 11:26:50;;;;;;;1.70;1.43;;;;;;;13.92;34.27;94717.03;4957929;28;20255;-76
2021/05/04 11:29:18;;;;;;;2.33;1.53;;;;;;;13.89;35.01;94731.25;4970603;28;20678;-76
2021/05/04 11:31:44;;;;;;;1.63;1.53;;;;;;;13.64;35.23;94754.31;4974129;28;20656;-77
2021/05/04 11:34:32;;;;;;;2.30;1.40;;;;;;;13.58;34.85;94713.31;4971283;28;20180;-76
2021/05/04 11:36:58;;;;;;;2.23;1.27;;;;;;;13.76;35.47;94711.06;4963413;28;20227;-76
2021/05/04 11:39:24;;;;;;;5.37;1.70;;;;;;;13.68;37.36;94750.31;4974264;28;20195;-76
2021/05/04 11:41:59;;;;;;;3.07;1.30;;;;;;;13.25;39.15;94719.00;4973407;28;20181;-76
2021/05/04 11:44:34;;;;;;;3.93;1.77;;;;;;;13.21;39.70;94743.81;4971511;28;20184;-76